AFR7501 LEPA-LFKF
Flight info
| Callsign | AFR7501 |
|---|---|
| Flight time | N/A |
| Altitude | 34000 |
| Route | CDP DCT MHN N851 ISTER UN851 LUNOR DCT INKIR DCT NESUL UN851 NEGAT DCT IWAZA DCT AJO |
| Aircraft | A320/M-SDE3FGHIRWY/LB1 |
Departure
| Time | 2026-04-30 21:09 |
|---|---|
| Airport | Palma de Mallorca Airport (LEPA) |
Arrival
| Time | N/A |
|---|---|
| Airport | Figari Sud-Corse Airport (LFKF) |
| Time | Latitude | Longitude | Altitude | Speed | Heading |
|---|---|---|---|---|---|
| 2026-04-30 20:12 | 39.55297 | 2.73302 | 33 ft | 0 kts | 197° |
| 2026-04-30 20:46 | 39.55334 | 2.73314 | 31 ft | 4 kts | 190° |
| 2026-04-30 20:46 | 39.55360 | 2.73317 | 32 ft | 4 kts | 168° |
| 2026-04-30 20:47 | 39.55374 | 2.73302 | 30 ft | 1 kts | 58° |
| 2026-04-30 20:47 | 39.55373 | 2.73302 | 30 ft | 0 kts | 58° |
| 2026-04-30 20:52 | 39.55374 | 2.73302 | 30 ft | 1 kts | 58° |
| 2026-04-30 20:52 | 39.55438 | 2.73438 | 33 ft | 14 kts | 58° |
| 2026-04-30 20:53 | 39.55483 | 2.73535 | 33 ft | 9 kts | 58° |
| 2026-04-30 20:53 | 39.55481 | 2.73603 | 32 ft | 8 kts | 132° |
| 2026-04-30 20:53 | 39.55441 | 2.73641 | 32 ft | 6 kts | 147° |
| 2026-04-30 20:54 | 39.55373 | 2.73695 | 34 ft | 9 kts | 148° |
| 2026-04-30 20:54 | 39.55312 | 2.73744 | 34 ft | 10 kts | 148° |
| 2026-04-30 20:54 | 39.55257 | 2.73788 | 33 ft | 9 kts | 148° |
| 2026-04-30 20:55 | 39.55171 | 2.73857 | 33 ft | 6 kts | 149° |
| 2026-04-30 20:55 | 39.55126 | 2.73891 | 33 ft | 12 kts | 149° |
| 2026-04-30 20:55 | 39.55022 | 2.73971 | 33 ft | 20 kts | 148° |
| 2026-04-30 20:56 | 39.54769 | 2.74085 | 33 ft | 20 kts | 231° |
| 2026-04-30 20:56 | 39.54697 | 2.73941 | 34 ft | 18 kts | 238° |
| 2026-04-30 20:56 | 39.54566 | 2.73652 | 35 ft | 30 kts | 238° |
| 2026-04-30 20:57 | 39.54444 | 2.73397 | 37 ft | 34 kts | 238° |
| 2026-04-30 20:57 | 39.54331 | 2.73162 | 38 ft | 20 kts | 238° |
| 2026-04-30 20:57 | 39.54269 | 2.73032 | 39 ft | 16 kts | 238° |
| 2026-04-30 20:58 | 39.54158 | 2.72993 | 40 ft | 5 kts | 100° |
| 2026-04-30 20:58 | 39.54158 | 2.72994 | 40 ft | 0 kts | 100° |
| 2026-04-30 21:01 | 39.54148 | 2.73121 | 40 ft | 19 kts | 93° |
| 2026-04-30 21:02 | 39.54178 | 2.73292 | 37 ft | 21 kts | 64° |
| 2026-04-30 21:02 | 39.54219 | 2.73381 | 38 ft | 0 kts | 58° |
| 2026-04-30 21:08 | 39.54232 | 2.73407 | 37 ft | 20 kts | 58° |
| 2026-04-30 21:09 | 39.54476 | 2.73915 | 33 ft | 110 kts | 58° |
| 2026-04-30 21:09 | 39.55007 | 2.75035 | 68 ft | 175 kts | 59° |
| 2026-04-30 21:09 | 39.55696 | 2.76396 | 857 ft | 182 kts | 60° |
| 2026-04-30 21:09 | 39.56121 | 2.77919 | 1726 ft | 183 kts | 76° |
| 2026-04-30 21:10 | 39.56401 | 2.79629 | 2210 ft | 202 kts | 79° |
| 2026-04-30 21:10 | 39.56651 | 2.81428 | 2925 ft | 209 kts | 83° |
| 2026-04-30 21:10 | 39.56600 | 2.83370 | 3667 ft | 216 kts | 94° |
| 2026-04-30 21:10 | 39.56476 | 2.85303 | 4421 ft | 220 kts | 92° |
| 2026-04-30 21:11 | 39.56389 | 2.87308 | 5142 ft | 226 kts | 91° |
| 2026-04-30 21:11 | 39.56314 | 2.89370 | 5897 ft | 231 kts | 91° |
| 2026-04-30 21:11 | 39.56245 | 2.91469 | 6647 ft | 236 kts | 91° |
| 2026-04-30 21:11 | 39.56381 | 2.93596 | 7317 ft | 242 kts | 75° |
| 2026-04-30 21:12 | 39.56936 | 2.95760 | 7675 ft | 265 kts | 69° |
| 2026-04-30 21:12 | 39.57586 | 2.98108 | 8127 ft | 285 kts | 69° |
| 2026-04-30 21:12 | 39.58262 | 3.00565 | 8854 ft | 293 kts | 70° |
| 2026-04-30 21:12 | 39.58950 | 3.03086 | 9630 ft | 301 kts | 70° |
| 2026-04-30 21:13 | 39.59650 | 3.05659 | 9926 ft | 305 kts | 70° |
| 2026-04-30 21:13 | 39.60360 | 3.08281 | 10049 ft | 308 kts | 70° |
| 2026-04-30 21:13 | 39.61082 | 3.10957 | 10113 ft | 328 kts | 70° |
| 2026-04-30 21:13 | 39.61858 | 3.13842 | 10116 ft | 344 kts | 70° |
| 2026-04-30 21:14 | 39.62640 | 3.16757 | 10119 ft | 345 kts | 70° |
| 2026-04-30 21:14 | 39.63420 | 3.19667 | 10120 ft | 344 kts | 70° |
| 2026-04-30 21:14 | 39.64199 | 3.22568 | 10119 ft | 340 kts | 70° |
| 2026-04-30 21:14 | 39.64976 | 3.25467 | 10121 ft | 342 kts | 70° |
| 2026-04-30 21:15 | 39.65775 | 3.28445 | 10645 ft | 353 kts | 70° |
| 2026-04-30 21:15 | 39.66569 | 3.31412 | 11435 ft | 356 kts | 70° |
| 2026-04-30 21:15 | 39.67389 | 3.34478 | 12216 ft | 360 kts | 70° |
| 2026-04-30 21:15 | 39.68217 | 3.37573 | 12978 ft | 365 kts | 70° |
| 2026-04-30 21:16 | 39.69050 | 3.40700 | 13729 ft | 369 kts | 70° |
| 2026-04-30 21:16 | 39.69886 | 3.43873 | 14406 ft | 373 kts | 71° |
| 2026-04-30 21:16 | 39.70643 | 3.47036 | 15050 ft | 377 kts | 73° |
| 2026-04-30 21:16 | 39.71324 | 3.50153 | 15683 ft | 380 kts | 74° |
| 2026-04-30 21:17 | 39.72017 | 3.53480 | 16352 ft | 383 kts | 75° |
| 2026-04-30 21:17 | 39.72705 | 3.56839 | 17019 ft | 387 kts | 75° |
| 2026-04-30 21:17 | 39.73404 | 3.60230 | 17683 ft | 390 kts | 74° |
| 2026-04-30 21:17 | 39.74116 | 3.63643 | 18355 ft | 393 kts | 74° |
| 2026-04-30 21:18 | 39.74843 | 3.67087 | 18916 ft | 397 kts | 74° |
| 2026-04-30 21:18 | 39.75583 | 3.70563 | 19441 ft | 401 kts | 74° |
| 2026-04-30 21:18 | 39.76331 | 3.74069 | 19978 ft | 405 kts | 74° |
| 2026-04-30 21:18 | 39.77087 | 3.77610 | 20520 ft | 408 kts | 74° |
| 2026-04-30 21:19 | 39.77850 | 3.81182 | 21063 ft | 411 kts | 73° |
| 2026-04-30 21:19 | 39.78616 | 3.84777 | 21581 ft | 415 kts | 73° |
| 2026-04-30 21:19 | 39.79373 | 3.88337 | 22090 ft | 418 kts | 74° |
| 2026-04-30 21:19 | 39.80128 | 3.91899 | 22594 ft | 421 kts | 74° |
| 2026-04-30 21:20 | 39.80899 | 3.95546 | 23098 ft | 425 kts | 74° |
| 2026-04-30 21:20 | 39.81697 | 3.99316 | 23612 ft | 428 kts | 74° |
| 2026-04-30 21:20 | 39.82490 | 4.03063 | 24035 ft | 432 kts | 74° |
| 2026-04-30 21:20 | 39.83276 | 4.06799 | 24441 ft | 435 kts | 74° |
| 2026-04-30 21:21 | 39.84073 | 4.10606 | 24856 ft | 438 kts | 74° |
| 2026-04-30 21:21 | 39.84873 | 4.14447 | 25260 ft | 441 kts | 74° |
| 2026-04-30 21:21 | 39.86714 | 4.22106 | 26054 ft | 446 kts | 64° |
| 2026-04-30 21:22 | 39.88148 | 4.25607 | 26420 ft | 448 kts | 58° |
| 2026-04-30 21:22 | 39.92877 | 4.36114 | 27543 ft | 457 kts | 58° |
| 2026-04-30 21:23 | 39.94479 | 4.39701 | 27884 ft | 459 kts | 58° |
| 2026-04-30 21:23 | 39.95833 | 4.42739 | 28193 ft | 462 kts | 58° |
| 2026-04-30 21:23 | 39.98581 | 4.48920 | 28541 ft | 459 kts | 59° |
| 2026-04-30 21:24 | 40.00191 | 4.52538 | 28757 ft | 464 kts | 57° |
| 2026-04-30 21:24 | 40.01825 | 4.56206 | 28924 ft | 471 kts | 57° |
| 2026-04-30 21:24 | 40.03475 | 4.59912 | 29197 ft | 475 kts | 57° |
| 2026-04-30 21:24 | 40.05134 | 4.63648 | 29504 ft | 477 kts | 57° |
| 2026-04-30 21:25 | 40.08482 | 4.71195 | 30121 ft | 482 kts | 57° |
| 2026-04-30 21:25 | 40.10143 | 4.74940 | 30375 ft | 484 kts | 57° |
| 2026-04-30 21:25 | 40.11835 | 4.78756 | 30641 ft | 486 kts | 57° |
| 2026-04-30 21:26 | 40.15187 | 4.86345 | 31146 ft | 490 kts | 57° |
| 2026-04-30 21:26 | 40.16889 | 4.90206 | 31375 ft | 492 kts | 57° |
| 2026-04-30 21:27 | 40.20265 | 4.97881 | 32027 ft | 491 kts | 57° |
| 2026-04-30 21:27 | 40.21966 | 5.01757 | 32372 ft | 491 kts | 57° |
| 2026-04-30 21:27 | 40.23654 | 5.05613 | 32704 ft | 490 kts | 57° |
| 2026-04-30 21:28 | 40.27037 | 5.13351 | 33394 ft | 489 kts | 57° |
| 2026-04-30 21:28 | 40.28724 | 5.17212 | 33735 ft | 488 kts | 57° |
| 2026-04-30 21:28 | 40.32088 | 5.24907 | 34072 ft | 482 kts | 57° |
| 2026-04-30 21:29 | 40.33653 | 5.28493 | 34070 ft | 477 kts | 57° |
| 2026-04-30 21:30 | 40.41849 | 5.47363 | 34079 ft | 476 kts | 57° |
| 2026-04-30 21:31 | 40.49955 | 5.66170 | 34085 ft | 477 kts | 57° |
| 2026-04-30 21:32 | 40.54846 | 5.77556 | 34089 ft | 477 kts | 57° |
| 2026-04-30 21:32 | 40.58090 | 5.85141 | 34090 ft | 477 kts | 57° |
| 2026-04-30 21:33 | 40.62959 | 5.96576 | 34089 ft | 477 kts | 57° |
| 2026-04-30 21:34 | 40.66198 | 6.04194 | 34092 ft | 477 kts | 57° |
| 2026-04-30 21:34 | 40.70885 | 6.15238 | 34094 ft | 477 kts | 57° |
| 2026-04-30 21:35 | 40.74111 | 6.22880 | 34103 ft | 477 kts | 57° |
| 2026-04-30 21:35 | 40.77306 | 6.30460 | 34103 ft | 477 kts | 56° |
| 2026-04-30 21:36 | 40.80518 | 6.38122 | 34093 ft | 478 kts | 57° |
| 2026-04-30 21:37 | 40.86430 | 6.52238 | 34092 ft | 478 kts | 56° |
| 2026-04-30 21:37 | 40.89638 | 6.59919 | 34076 ft | 478 kts | 56° |
| 2026-04-30 21:38 | 40.92820 | 6.67565 | 34096 ft | 478 kts | 56° |
| 2026-04-30 21:38 | 40.96026 | 6.75286 | 34102 ft | 478 kts | 56° |
| 2026-04-30 21:39 | 40.99227 | 6.83004 | 34095 ft | 479 kts | 56° |
| 2026-04-30 21:39 | 41.02426 | 6.90747 | 33495 ft | 482 kts | 56° |
| 2026-04-30 21:40 | 41.04028 | 6.94640 | 32893 ft | 479 kts | 56° |
| 2026-04-30 21:40 | 41.05614 | 6.98509 | 32315 ft | 476 kts | 56° |
| 2026-04-30 21:40 | 41.07188 | 7.02352 | 31787 ft | 473 kts | 56° |
| 2026-04-30 21:40 | 41.08752 | 7.06169 | 31263 ft | 469 kts | 56° |
| 2026-04-30 21:41 | 41.10297 | 7.09929 | 30758 ft | 466 kts | 56° |
| 2026-04-30 21:41 | 41.11855 | 7.13721 | 30242 ft | 463 kts | 56° |
| 2026-04-30 21:41 | 41.13377 | 7.17438 | 30002 ft | 453 kts | 56° |
| 2026-04-30 21:41 | 41.14854 | 7.21058 | 29883 ft | 439 kts | 56° |
| 2026-04-30 21:42 | 41.16281 | 7.24567 | 29776 ft | 426 kts | 56° |
| 2026-04-30 21:42 | 41.17663 | 7.27970 | 29672 ft | 413 kts | 56° |
| 2026-04-30 21:42 | 41.19015 | 7.31295 | 29567 ft | 409 kts | 56° |
| 2026-04-30 21:42 | 41.20348 | 7.34569 | 29473 ft | 409 kts | 56° |
| 2026-04-30 21:43 | 41.23049 | 7.41212 | 29282 ft | 408 kts | 56° |
| 2026-04-30 21:43 | 41.24396 | 7.44531 | 29173 ft | 407 kts | 56° |
| 2026-04-30 21:43 | 41.25739 | 7.47842 | 29072 ft | 407 kts | 56° |
| 2026-04-30 21:44 | 41.27078 | 7.51145 | 28967 ft | 406 kts | 56° |
| 2026-04-30 21:44 | 41.28415 | 7.54452 | 28890 ft | 405 kts | 56° |
| 2026-04-30 21:44 | 41.29746 | 7.57751 | 28784 ft | 405 kts | 56° |
| 2026-04-30 21:44 | 41.31072 | 7.61048 | 28690 ft | 403 kts | 56° |
| 2026-04-30 21:45 | 41.33693 | 7.67582 | 28515 ft | 398 kts | 57° |
| 2026-04-30 21:45 | 41.36297 | 7.74072 | 28340 ft | 396 kts | 57° |
| 2026-04-30 21:46 | 41.37592 | 7.77306 | 28239 ft | 396 kts | 57° |
| 2026-04-30 21:46 | 41.38883 | 7.80538 | 28144 ft | 395 kts | 57° |
| 2026-04-30 21:46 | 41.41454 | 7.86989 | 27959 ft | 394 kts | 57° |
| 2026-04-30 21:47 | 41.42734 | 7.90208 | 27871 ft | 393 kts | 57° |
| 2026-04-30 21:47 | 41.43996 | 7.93384 | 27792 ft | 392 kts | 57° |
| 2026-04-30 21:47 | 41.45270 | 7.96598 | 27695 ft | 392 kts | 57° |
| 2026-04-30 21:47 | 41.46541 | 7.99807 | 27606 ft | 391 kts | 57° |
| 2026-04-30 21:48 | 41.47805 | 8.03004 | 27533 ft | 391 kts | 57° |
| 2026-04-30 21:48 | 41.49071 | 8.06212 | 27431 ft | 390 kts | 57° |
| 2026-04-30 21:48 | 41.50328 | 8.09401 | 27350 ft | 386 kts | 58° |
| 2026-04-30 21:48 | 41.51570 | 8.12559 | 27015 ft | 386 kts | 58° |
| 2026-04-30 21:49 | 41.52845 | 8.15790 | 25970 ft | 400 kts | 58° |
| 2026-04-30 21:49 | 41.54148 | 8.19093 | 24933 ft | 403 kts | 58° |
| 2026-04-30 21:49 | 41.55417 | 8.22321 | 23960 ft | 404 kts | 59° |
| 2026-04-30 21:49 | 41.56758 | 8.25744 | 22817 ft | 405 kts | 59° |
| 2026-04-30 21:50 | 41.58053 | 8.29060 | 21971 ft | 399 kts | 59° |
| 2026-04-30 21:50 | 41.59322 | 8.32315 | 21153 ft | 393 kts | 59° |
| 2026-04-30 21:50 | 41.60558 | 8.35491 | 20356 ft | 387 kts | 59° |
| 2026-04-30 21:50 | 41.61795 | 8.38659 | 19577 ft | 382 kts | 59° |
| 2026-04-30 21:51 | 41.62795 | 8.41908 | 18988 ft | 375 kts | 77° |
| 2026-04-30 21:51 | 41.62911 | 8.45302 | 18688 ft | 362 kts | 97° |
| 2026-04-30 21:51 | 41.62138 | 8.48447 | 18121 ft | 355 kts | 120° |
| 2026-04-30 21:51 | 41.60837 | 8.51228 | 17391 ft | 352 kts | 123° |
| 2026-04-30 21:52 | 41.59462 | 8.53933 | 16472 ft | 355 kts | 128° |
| 2026-04-30 21:52 | 41.57767 | 8.56334 | 15529 ft | 357 kts | 144° |
| 2026-04-30 21:52 | 41.55571 | 8.57834 | 14602 ft | 355 kts | 168° |
| 2026-04-30 21:52 | 41.53141 | 8.58042 | 13693 ft | 349 kts | 192° |
| 2026-04-30 21:53 | 41.50865 | 8.57068 | 12739 ft | 342 kts | 212° |
| 2026-04-30 21:53 | 41.48993 | 8.55183 | 11824 ft | 335 kts | 230° |
| 2026-04-30 21:53 | 41.47690 | 8.52667 | 10951 ft | 328 kts | 248° |
| 2026-04-30 21:53 | 41.47055 | 8.49796 | 10120 ft | 321 kts | 266° |
| 2026-04-30 21:54 | 41.47111 | 8.46869 | 9247 ft | 314 kts | 282° |
| 2026-04-30 21:54 | 41.47557 | 8.44033 | 8398 ft | 311 kts | 285° |
| 2026-04-30 21:54 | 41.48103 | 8.41308 | 7592 ft | 308 kts | 286° |
| 2026-04-30 21:54 | 41.48699 | 8.38577 | 6803 ft | 305 kts | 286° |
| 2026-04-30 21:55 | 41.49299 | 8.35879 | 6001 ft | 302 kts | 286° |
| 2026-04-30 21:55 | 41.49892 | 8.33209 | 5204 ft | 299 kts | 288° |
| 2026-04-30 21:55 | 41.50808 | 8.30735 | 4449 ft | 295 kts | 307° |
| 2026-04-30 21:55 | 41.52214 | 8.28899 | 4190 ft | 272 kts | 328° |
| 2026-04-30 21:56 | 41.53827 | 8.27879 | 4097 ft | 243 kts | 347° |
| 2026-04-30 21:56 | 41.55432 | 8.27630 | 4108 ft | 227 kts | 6° |
| 2026-04-30 21:56 | 41.56964 | 8.28036 | 4116 ft | 224 kts | 24° |
| 2026-04-30 21:56 | 41.58320 | 8.29022 | 4122 ft | 222 kts | 39° |
| 2026-04-30 21:57 | 41.59392 | 8.30485 | 4113 ft | 220 kts | 56° |
| 2026-04-30 21:57 | 41.60101 | 8.32289 | 4121 ft | 219 kts | 72° |
| 2026-04-30 21:57 | 41.60393 | 8.34280 | 4119 ft | 219 kts | 89° |
| 2026-04-30 21:57 | 41.60242 | 8.36297 | 4122 ft | 219 kts | 104° |
| 2026-04-30 21:58 | 41.59694 | 8.38186 | 4117 ft | 219 kts | 113° |
| 2026-04-30 21:58 | 41.59069 | 8.40029 | 4120 ft | 217 kts | 113° |
| 2026-04-30 21:58 | 41.58453 | 8.41867 | 4123 ft | 217 kts | 112° |
| 2026-04-30 21:58 | 41.57835 | 8.43712 | 4110 ft | 217 kts | 113° |
| 2026-04-30 21:59 | 41.57224 | 8.45538 | 4006 ft | 219 kts | 113° |
| 2026-04-30 21:59 | 41.56606 | 8.47391 | 3988 ft | 218 kts | 113° |
| 2026-04-30 21:59 | 41.55987 | 8.49241 | 3990 ft | 218 kts | 113° |
| 2026-04-30 22:00 | 41.54751 | 8.52923 | 3990 ft | 217 kts | 113° |
| 2026-04-30 22:00 | 41.53512 | 8.56606 | 3991 ft | 218 kts | 113° |
| 2026-04-30 22:00 | 41.52890 | 8.58454 | 3991 ft | 218 kts | 112° |
| 2026-04-30 22:01 | 41.52269 | 8.60296 | 3986 ft | 217 kts | 113° |
| 2026-04-30 22:01 | 41.51650 | 8.62125 | 3997 ft | 217 kts | 113° |
| 2026-04-30 22:01 | 41.51030 | 8.63958 | 3992 ft | 217 kts | 113° |
| 2026-04-30 22:01 | 41.50407 | 8.65799 | 3991 ft | 217 kts | 112° |
| 2026-04-30 22:02 | 41.49784 | 8.67643 | 3997 ft | 219 kts | 113° |
| 2026-04-30 22:02 | 41.49158 | 8.69492 | 3994 ft | 218 kts | 112° |
| 2026-04-30 22:02 | 41.48535 | 8.71334 | 3994 ft | 219 kts | 112° |
| 2026-04-30 22:02 | 41.47914 | 8.73175 | 3998 ft | 217 kts | 112° |
| 2026-04-30 22:03 | 41.47295 | 8.75007 | 3997 ft | 217 kts | 112° |
| 2026-04-30 22:03 | 41.46676 | 8.76835 | 3993 ft | 213 kts | 112° |
| 2026-04-30 22:03 | 41.46093 | 8.78544 | 3999 ft | 197 kts | 112° |
| 2026-04-30 22:03 | 41.45543 | 8.80149 | 3997 ft | 186 kts | 111° |
| 2026-04-30 22:04 | 41.45012 | 8.81706 | 3995 ft | 184 kts | 111° |
| 2026-04-30 22:04 | 41.44486 | 8.83256 | 4000 ft | 183 kts | 111° |
| 2026-04-30 22:04 | 41.43436 | 8.86349 | 3996 ft | 184 kts | 111° |
| 2026-04-30 22:05 | 41.42823 | 8.87762 | 4000 ft | 184 kts | 127° |
| 2026-04-30 22:05 | 41.41811 | 8.88846 | 4012 ft | 188 kts | 143° |
| 2026-04-30 22:05 | 41.40695 | 8.89751 | 4005 ft | 188 kts | 142° |
| 2026-04-30 22:05 | 41.39592 | 8.90679 | 3998 ft | 186 kts | 135° |
| 2026-04-30 22:06 | 41.38896 | 8.92046 | 3841 ft | 178 kts | 99° |
| 2026-04-30 22:06 | 41.39606 | 8.95299 | 2954 ft | 197 kts | 64° |
| 2026-04-30 22:06 | 41.40250 | 8.96920 | 2680 ft | 198 kts | 63° |
| 2026-04-30 22:07 | 41.40889 | 8.98530 | 2445 ft | 195 kts | 64° |
| 2026-04-30 22:07 | 41.41513 | 9.00104 | 2241 ft | 191 kts | 65° |
| 2026-04-30 22:07 | 41.42143 | 9.01638 | 2083 ft | 185 kts | 57° |
| 2026-04-30 22:07 | 41.43095 | 9.02722 | 2001 ft | 181 kts | 36° |
| 2026-04-30 22:08 | 41.44146 | 9.03617 | 2005 ft | 178 kts | 36° |
| 2026-04-30 22:08 | 41.45183 | 9.04498 | 2007 ft | 176 kts | 35° |
| 2026-04-30 22:08 | 41.46212 | 9.05372 | 2005 ft | 176 kts | 36° |
| 2026-04-30 22:08 | 41.47244 | 9.06250 | 2002 ft | 176 kts | 36° |
| 2026-04-30 22:09 | 41.48288 | 9.07137 | 1795 ft | 181 kts | 35° |
| 2026-04-30 22:09 | 41.49267 | 9.08197 | 1395 ft | 178 kts | 57° |
| 2026-04-30 22:09 | 41.49737 | 9.09583 | 1367 ft | 155 kts | 81° |
| 2026-04-30 22:09 | 41.49708 | 9.10930 | 1337 ft | 137 kts | 96° |
| 2026-04-30 22:10 | 41.49573 | 9.12168 | 975 ft | 141 kts | 94° |
| 2026-04-30 22:10 | 41.49596 | 9.13602 | 1062 ft | 171 kts | 76° |
| 2026-04-30 22:10 | 41.50028 | 9.15206 | 1546 ft | 196 kts | 59° |
| 2026-04-30 22:10 | 41.50813 | 9.16782 | 2213 ft | 212 kts | 58° |
| 2026-04-30 22:11 | 41.50535 | 9.21052 | 2314 ft | 288 kts | 125° |
| 2026-04-30 22:11 | 41.48941 | 9.22587 | 2295 ft | 280 kts | 159° |
| 2026-04-30 22:11 | 41.47078 | 9.22657 | 2304 ft | 265 kts | 196° |
| 2026-04-30 22:12 | 41.45631 | 9.21350 | 2306 ft | 246 kts | 236° |
| 2026-04-30 22:12 | 41.45116 | 9.19307 | 2222 ft | 231 kts | 270° |
| 2026-04-30 22:12 | 41.45064 | 9.17176 | 2056 ft | 230 kts | 271° |
| 2026-04-30 22:12 | 41.44934 | 9.15098 | 2002 ft | 220 kts | 259° |
| 2026-04-30 22:13 | 41.44493 | 9.13159 | 2011 ft | 217 kts | 252° |
| 2026-04-30 22:13 | 41.43952 | 9.11287 | 2011 ft | 216 kts | 251° |
| 2026-04-30 22:13 | 41.43392 | 9.09440 | 2015 ft | 215 kts | 249° |
| 2026-04-30 22:13 | 41.42832 | 9.07588 | 2014 ft | 215 kts | 248° |
| 2026-04-30 22:14 | 41.42281 | 9.05742 | 2009 ft | 214 kts | 248° |
| 2026-04-30 22:14 | 41.41737 | 9.03891 | 2003 ft | 218 kts | 248° |
| 2026-04-30 22:14 | 41.41181 | 9.01988 | 2007 ft | 222 kts | 248° |
| 2026-04-30 22:14 | 41.40620 | 9.00053 | 2008 ft | 223 kts | 247° |
| 2026-04-30 22:15 | 41.40064 | 8.98126 | 2008 ft | 225 kts | 248° |
| 2026-04-30 22:15 | 41.39505 | 8.96186 | 2009 ft | 223 kts | 248° |
| 2026-04-30 22:15 | 41.39000 | 8.94234 | 2004 ft | 223 kts | 261° |
| 2026-04-30 22:15 | 41.39128 | 8.92246 | 2001 ft | 219 kts | 296° |
| 2026-04-30 22:16 | 41.39999 | 8.90668 | 2008 ft | 208 kts | 330° |
| 2026-04-30 22:16 | 41.41247 | 8.89756 | 2012 ft | 204 kts | 341° |
| 2026-04-30 22:17 | 41.45066 | 8.87235 | 2004 ft | 202 kts | 337° |
| 2026-04-30 22:17 | 41.46184 | 8.86088 | 2001 ft | 207 kts | 310° |
| 2026-04-30 22:17 | 41.46552 | 8.82520 | 1995 ft | 204 kts | 243° |
| 2026-04-30 22:18 | 41.45664 | 8.81083 | 2000 ft | 201 kts | 210° |
| 2026-04-30 22:18 | 41.43121 | 8.80761 | 2010 ft | 181 kts | 147° |
| 2026-04-30 22:19 | 41.41585 | 8.83094 | 2005 ft | 167 kts | 112° |
| 2026-04-30 22:19 | 41.41055 | 8.84474 | 2007 ft | 167 kts | 112° |
| 2026-04-30 22:19 | 41.39996 | 8.87210 | 2006 ft | 167 kts | 112° |
| 2026-04-30 22:20 | 41.39467 | 8.88578 | 2003 ft | 167 kts | 112° |
| 2026-04-30 22:20 | 41.38665 | 8.91519 | 1986 ft | 178 kts | 90° |
| 2026-04-30 22:20 | 41.38810 | 8.93066 | 2012 ft | 166 kts | 74° |
| 2026-04-30 22:21 | 41.39293 | 8.94460 | 2008 ft | 165 kts | 64° |
| 2026-04-30 22:21 | 41.39824 | 8.95805 | 2008 ft | 164 kts | 64° |
| 2026-04-30 22:21 | 41.40353 | 8.97146 | 2007 ft | 162 kts | 64° |
| 2026-04-30 22:21 | 41.40875 | 8.98472 | 2005 ft | 163 kts | 65° |
| 2026-04-30 22:22 | 41.41400 | 8.99809 | 2009 ft | 161 kts | 64° |
| 2026-04-30 22:22 | 41.41894 | 9.01057 | 2009 ft | 148 kts | 64° |
| 2026-04-30 22:22 | 41.42514 | 9.02158 | 2004 ft | 151 kts | 45° |
| 2026-04-30 22:22 | 41.43391 | 9.02975 | 2005 ft | 155 kts | 36° |
| 2026-04-30 22:23 | 41.44308 | 9.03731 | 1952 ft | 156 kts | 33° |
| 2026-04-30 22:23 | 41.45292 | 9.04326 | 1736 ft | 155 kts | 24° |
| 2026-04-30 22:23 | 41.46289 | 9.04849 | 1362 ft | 156 kts | 30° |
| 2026-04-30 22:23 | 41.47215 | 9.05587 | 1051 ft | 157 kts | 40° |
| 2026-04-30 22:24 | 41.48054 | 9.06506 | 696 ft | 153 kts | 47° |
| 2026-04-30 22:24 | 41.48757 | 9.07565 | 465 ft | 155 kts | 54° |
| 2026-04-30 22:24 | 41.49385 | 9.08704 | 205 ft | 153 kts | 39° |
| 2026-04-30 22:24 | 41.50151 | 9.09626 | 169 ft | 144 kts | 38° |